Time;durP1;ratioP1;P1;durP2;ratioP2;P2;SDS_P1;SDS_P2;PMS_P1;PMS_P2;Temp;Humidity;BMP_temperature;BMP_pressure;BME280_temperature;BME280_humidity;BME280_pressure;Samples;Min_cycle;Max_cycle;Signal;HPM_P1;HPM_P2
2022/01/14 00:00:12;;;;;;;53.7;22.85;;;;;;;-3.15;76.24316;97057.14;;;;
2022/01/14 00:01:14;;;;;;;53.7;22.85;;;;;;;-3.15;76.24316;97057.14;;;;
2022/01/14 00:02:14;;;;;;;53.7;22.85;;;;;;;-3.15;76.24316;97057.14;;;;
2022/01/14 00:03:15;;;;;;;56.64999;24.2;;;;;;;-3.19;76.31934;97046.41;;;;
2022/01/14 00:04:16;;;;;;;56.64999;24.2;;;;;;;-3.19;76.31934;97046.41;;;;
2022/01/14 00:05:16;;;;;;;56.64999;24.2;;;;;;;-3.19;76.31934;97046.41;;;;
2022/01/14 00:06:17;;;;;;;56.64999;24.2;;;;;;;-3.19;76.31934;97046.41;;;;
2022/01/14 00:07:17;;;;;;;56.64999;24.2;;;;;;;-3.19;76.31934;97046.41;;;;
2022/01/14 00:08:19;;;;;;;56.64999;24.2;;;;;;;-3.19;76.31934;97046.41;;;;
2022/01/14 00:09:20;;;;;;;56.64999;24.2;;;;;;;-3.19;76.31934;97046.41;;;;
2022/01/14 00:10:20;;;;;;;56.64999;24.2;;;;;;;-3.19;76.31934;97046.41;;;;
2022/01/14 00:11:21;;;;;;;56.64999;24.2;;;;;;;-3.19;76.31934;97046.41;;;;
2022/01/14 00:12:26;;;;;;;56.64999;24.2;;;;;;;-3.19;76.31934;97046.41;;;;
2022/01/14 00:14:09;;;;;;;54.55;22.65;;;;;;;-3.22;76.46777;97034.76;;;;
2022/01/14 00:15:24;;;;;;;54.55;22.65;;;;;;;-3.22;76.46777;97034.76;;;;
2022/01/14 00:16:24;;;;;;;54.55;22.65;;;;;;;-3.22;76.46777;97034.76;;;;
2022/01/14 00:17:25;;;;;;;54.55;22.65;;;;;;;-3.22;76.46777;97034.76;;;;
2022/01/14 00:18:26;;;;;;;54.55;22.65;;;;;;;-3.22;76.46777;97034.76;;;;
2022/01/14 00:19:26;;;;;;;54.55;22.65;;;;;;;-3.22;76.46777;97034.76;;;;
2022/01/14 00:20:27;;;;;;;54.55;22.65;;;;;;;-3.22;76.46777;97034.76;;;;
2022/01/14 00:21:28;;;;;;;54.55;22.65;;;;;;;-3.22;76.46777;97034.76;;;;
2022/01/14 00:22:30;;;;;;;54.55;22.65;;;;;;;-3.22;76.46777;97034.76;;;;
2022/01/14 00:23:34;;;;;;;54.55;22.65;;;;;;;-3.22;76.46777;97034.76;;;;
2022/01/14 00:31:42;;;;;;;53.15;22.6;;;;;;;-3.24;76.56836;97044.16;;;;
2022/01/14 00:32:51;;;;;;;53.15;22.6;;;;;;;-3.24;76.56836;97044.16;;;;
2022/01/14 00:33:51;;;;;;;53.15;22.6;;;;;;;-3.24;76.56836;97044.16;;;;
2022/01/14 00:34:52;;;;;;;56.64999;22.8;;;;;;;-3.29;76.64258;97032.58;;;;
2022/01/14 00:35:52;;;;;;;56.64999;22.8;;;;;;;-3.29;76.64258;97032.58;;;;
2022/01/14 00:36:53;;;;;;;56.64999;22.8;;;;;;;-3.29;76.64258;97032.58;;;;
2022/01/14 00:37:54;;;;;;;56.64999;22.8;;;;;;;-3.29;76.64258;97032.58;;;;
2022/01/14 00:38:55;;;;;;;56.64999;22.8;;;;;;;-3.29;76.64258;97032.58;;;;
2022/01/14 00:39:55;;;;;;;56.64999;22.8;;;;;;;-3.29;76.64258;97032.58;;;;
2022/01/14 00:40:55;;;;;;;56.64999;22.8;;;;;;;-3.29;76.64258;97032.58;;;;
2022/01/14 00:41:56;;;;;;;56.64999;22.8;;;;;;;-3.29;76.64258;97032.58;;;;
2022/01/14 00:42:57;;;;;;;56.64999;22.8;;;;;;;-3.29;76.64258;97032.58;;;;
2022/01/14 00:44:01;;;;;;;56.64999;22.8;;;;;;;-3.29;76.64258;97032.58;;;;
2022/01/14 00:45:06;;;;;;;56.64999;22.8;;;;;;;-3.29;76.64258;97032.58;;;;
2022/01/14 00:46:07;;;;;;;52.19999;21.7;;;;;;;-3.42;76.74316;97024.76;;;;
2022/01/14 00:47:08;;;;;;;52.19999;21.7;;;;;;;-3.42;76.74316;97024.76;;;;
2022/01/14 00:48:08;;;;;;;52.19999;21.7;;;;;;;-3.42;76.74316;97024.76;;;;
2022/01/14 00:49:09;;;;;;;52.19999;21.7;;;;;;;-3.42;76.74316;97024.76;;;;
2022/01/14 00:50:11;;;;;;;52.19999;21.7;;;;;;;-3.42;76.74316;97024.76;;;;
2022/01/14 00:51:14;;;;;;;52.19999;21.7;;;;;;;-3.42;76.74316;97024.76;;;;
2022/01/14 00:52:15;;;;;;;52.19999;21.7;;;;;;;-3.42;76.74316;97024.76;;;;
2022/01/14 00:53:15;;;;;;;52.19999;21.7;;;;;;;-3.42;76.74316;97024.76;;;;
2022/01/14 00:54:17;;;;;;;52.19999;21.7;;;;;;;-3.42;76.74316;97024.76;;;;
2022/01/14 00:55:19;;;;;;;52.19999;21.7;;;;;;;-3.42;76.74316;97024.76;;;;
2022/01/14 00:56:25;;;;;;;60.95;23.35;;;;;;;-3.54;77.02246;97003.59;;;;
2022/01/14 00:59:13;;;;;;;60.95;23.35;;;;;;;-3.54;77.02246;97003.59;;;;
2022/01/14 01:00:16;;;;;;;60.95;23.35;;;;;;;-3.54;77.02246;97003.59;;;;
2022/01/14 01:01:20;;;;;;;60.95;23.35;;;;;;;-3.54;77.02246;97003.59;;;;
2022/01/14 01:02:21;;;;;;;60.95;23.35;;;;;;;-3.54;77.02246;97003.59;;;;
2022/01/14 01:03:21;;;;;;;60.95;23.35;;;;;;;-3.54;77.02246;97003.59;;;;
2022/01/14 01:04:25;;;;;;;60.95;23.35;;;;;;;-3.54;77.02246;97003.59;;;;
2022/01/14 01:05:27;;;;;;;60.95;23.35;;;;;;;-3.54;77.02246;97003.59;;;;
2022/01/14 01:06:28;;;;;;;60.95;23.35;;;;;;;-3.54;77.02246;97003.59;;;;
2022/01/14 01:07:29;;;;;;;57;22.8;;;;;;;-3.6;77.12402;97000.55;;;;
2022/01/14 01:08:31;;;;;;;57;22.8;;;;;;;-3.6;77.12402;97000.55;;;;
2022/01/14 01:09:32;;;;;;;57;22.8;;;;;;;-3.6;77.12402;97000.55;;;;
2022/01/14 01:10:34;;;;;;;57;22.8;;;;;;;-3.6;77.12402;97000.55;;;;
2022/01/14 01:11:38;;;;;;;57;22.8;;;;;;;-3.6;77.12402;97000.55;;;;
2022/01/14 01:12:48;;;;;;;57;22.8;;;;;;;-3.6;77.12402;97000.55;;;;
2022/01/14 01:13:57;;;;;;;57;22.8;;;;;;;-3.6;77.12402;97000.55;;;;
2022/01/14 01:15:05;;;;;;;57;22.8;;;;;;;-3.6;77.12402;97000.55;;;;
2022/01/14 01:16:07;;;;;;;57;22.8;;;;;;;-3.6;77.12402;97000.55;;;;
2022/01/14 01:17:08;;;;;;;57;22.8;;;;;;;-3.6;77.12402;97000.55;;;;
2022/01/14 01:18:08;;;;;;;64.64999;28.15;;;;;;;-3.66;77.32031;96993.91;;;;
2022/01/14 01:19:09;;;;;;;64.64999;28.15;;;;;;;-3.66;77.32031;96993.91;;;;
2022/01/14 01:20:11;;;;;;;64.64999;28.15;;;;;;;-3.66;77.32031;96993.91;;;;
2022/01/14 01:21:13;;;;;;;64.64999;28.15;;;;;;;-3.66;77.32031;96993.91;;;;
2022/01/14 01:22:14;;;;;;;64.64999;28.15;;;;;;;-3.66;77.32031;96993.91;;;;
2022/01/14 01:23:14;;;;;;;64.64999;28.15;;;;;;;-3.66;77.32031;96993.91;;;;
2022/01/14 01:24:16;;;;;;;64.64999;28.15;;;;;;;-3.66;77.32031;96993.91;;;;
2022/01/14 01:25:19;;;;;;;64.64999;28.15;;;;;;;-3.66;77.32031;96993.91;;;;
2022/01/14 01:26:27;;;;;;;64.64999;28.15;;;;;;;-3.66;77.32031;96993.91;;;;
2022/01/14 01:27:29;;;;;;;64.64999;28.15;;;;;;;-3.66;77.32031;96993.91;;;;
2022/01/14 01:28:30;;;;;;;48.00001;19.95;;;;;;;-3.64;77.67383;96986.3;;;;
2022/01/14 01:29:46;;;;;;;48.00001;19.95;;;;;;;-3.64;77.67383;96986.3;;;;
2022/01/14 01:30:51;;;;;;;48.00001;19.95;;;;;;;-3.64;77.67383;96986.3;;;;
2022/01/14 01:31:52;;;;;;;48.00001;19.95;;;;;;;-3.64;77.67383;96986.3;;;;
2022/01/14 01:32:53;;;;;;;48.00001;19.95;;;;;;;-3.64;77.67383;96986.3;;;;
2022/01/14 01:33:54;;;;;;;48.00001;19.95;;;;;;;-3.64;77.67383;96986.3;;;;
2022/01/14 01:34:54;;;;;;;48.00001;19.95;;;;;;;-3.64;77.67383;96986.3;;;;
2022/01/14 01:35:56;;;;;;;48.00001;19.95;;;;;;;-3.64;77.67383;96986.3;;;;
2022/01/14 01:36:57;;;;;;;48.00001;19.95;;;;;;;-3.64;77.67383;96986.3;;;;
2022/01/14 01:37:58;;;;;;;48.00001;19.95;;;;;;;-3.64;77.67383;96986.3;;;;
2022/01/14 01:38:58;;;;;;;50.00001;20.1;;;;;;;-3.66;77.58887;96987.73;;;;
2022/01/14 01:39:59;;;;;;;50.00001;20.1;;;;;;;-3.66;77.58887;96987.73;;;;
2022/01/14 01:40:59;;;;;;;50.00001;20.1;;;;;;;-3.66;77.58887;96987.73;;;;
2022/01/14 01:42:00;;;;;;;50.00001;20.1;;;;;;;-3.66;77.58887;96987.73;;;;
2022/01/14 01:43:06;;;;;;;50.00001;20.1;;;;;;;-3.66;77.58887;96987.73;;;;
2022/01/14 01:44:07;;;;;;;50.00001;20.1;;;;;;;-3.66;77.58887;96987.73;;;;
2022/01/14 01:45:11;;;;;;;50.00001;20.1;;;;;;;-3.66;77.58887;96987.73;;;;
2022/01/14 01:46:13;;;;;;;50.00001;20.1;;;;;;;-3.66;77.58887;96987.73;;;;
2022/01/14 01:47:14;;;;;;;50.00001;20.1;;;;;;;-3.66;77.58887;96987.73;;;;
2022/01/14 01:48:14;;;;;;;50.00001;20.1;;;;;;;-3.66;77.58887;96987.73;;;;
2022/01/14 01:49:15;;;;;;;50.00001;20.1;;;;;;;-3.66;77.58887;96987.73;;;;
2022/01/14 01:50:19;;;;;;;46.64999;20.85;;;;;;;-3.74;77.64746;96986.52;;;;
2022/01/14 01:51:23;;;;;;;46.64999;20.85;;;;;;;-3.74;77.64746;96986.52;;;;
2022/01/14 01:52:24;;;;;;;46.64999;20.85;;;;;;;-3.74;77.64746;96986.52;;;;
2022/01/14 01:53:25;;;;;;;46.64999;20.85;;;;;;;-3.74;77.64746;96986.52;;;;
2022/01/14 01:54:25;;;;;;;46.64999;20.85;;;;;;;-3.74;77.64746;96986.52;;;;
2022/01/14 01:55:28;;;;;;;46.64999;20.85;;;;;;;-3.74;77.64746;96986.52;;;;
2022/01/14 01:56:28;;;;;;;46.64999;20.85;;;;;;;-3.74;77.64746;96986.52;;;;
2022/01/14 01:57:29;;;;;;;46.64999;20.85;;;;;;;-3.74;77.64746;96986.52;;;;
2022/01/14 01:58:29;;;;;;;46.64999;20.85;;;;;;;-3.74;77.64746;96986.52;;;;
2022/01/14 01:59:30;;;;;;;46.64999;20.85;;;;;;;-3.74;77.64746;96986.52;;;;
2022/01/14 02:00:31;;;;;;;46.64999;20.85;;;;;;;-3.74;77.64746;96986.52;;;;
2022/01/14 02:01:31;;;;;;;46.64999;20.85;;;;;;;-3.74;77.64746;96986.52;;;;
2022/01/14 02:02:32;;;;;;;46.64999;20.85;;;;;;;-3.74;77.64746;96986.52;;;;
2022/01/14 02:03:36;;;;;;;46.64999;20.85;;;;;;;-3.74;77.64746;96986.52;;;;
2022/01/14 02:04:38;;;;;;;46.64999;20.85;;;;;;;-3.74;77.64746;96986.52;;;;
2022/01/14 02:05:38;;;;;;;46.64999;20.85;;;;;;;-3.74;77.64746;96986.52;;;;
2022/01/14 02:06:39;;;;;;;46.64999;20.85;;;;;;;-3.74;77.64746;96986.52;;;;
2022/01/14 02:07:40;;;;;;;46.64999;20.85;;;;;;;-3.74;77.64746;96986.52;;;;
2022/01/14 02:08:41;;;;;;;46.64999;20.85;;;;;;;-3.74;77.64746;96986.52;;;;
2022/01/14 02:09:42;;;;;;;46.64999;20.85;;;;;;;-3.74;77.64746;96986.52;;;;
2022/01/14 02:10:42;;;;;;;47.95001;20.2;;;;;;;-3.88;77.98145;96987.11;;;;
2022/01/14 02:11:43;;;;;;;47.95001;20.2;;;;;;;-3.88;77.98145;96987.11;;;;
2022/01/14 02:12:50;;;;;;;47.95001;20.2;;;;;;;-3.88;77.98145;96987.11;;;;
2022/01/14 02:13:52;;;;;;;47.95001;20.2;;;;;;;-3.88;77.98145;96987.11;;;;
2022/01/14 02:15:06;;;;;;;47.95001;20.2;;;;;;;-3.88;77.98145;96987.11;;;;
2022/01/14 02:16:17;;;;;;;47.95001;20.2;;;;;;;-3.88;77.98145;96987.11;;;;
2022/01/14 02:17:46;;;;;;;47.95001;20.2;;;;;;;-3.88;77.98145;96987.11;;;;
2022/01/14 02:19:00;;;;;;;47.95001;20.2;;;;;;;-3.88;77.98145;96987.11;;;;
2022/01/14 02:25:15;;;;;;;52.34999;21.3;;;;;;;-3.96;78.05859;96978.91;;;;
2022/01/14 02:26:17;;;;;;;52.34999;21.3;;;;;;;-3.96;78.05859;96978.91;;;;
2022/01/14 02:27:19;;;;;;;52.34999;21.3;;;;;;;-3.96;78.05859;96978.91;;;;
2022/01/14 02:28:20;;;;;;;52.34999;21.3;;;;;;;-3.96;78.05859;96978.91;;;;
2022/01/14 02:29:21;;;;;;;52.34999;21.3;;;;;;;-3.96;78.05859;96978.91;;;;
2022/01/14 02:30:22;;;;;;;52.34999;21.3;;;;;;;-3.96;78.05859;96978.91;;;;
2022/01/14 02:31:24;;;;;;;52.34999;21.3;;;;;;;-3.96;78.05859;96978.91;;;;
2022/01/14 02:32:24;;;;;;;52.7;22.35;;;;;;;-4.01;78.1123;96980.59;;;;
2022/01/14 02:33:25;;;;;;;52.7;22.35;;;;;;;-4.01;78.1123;96980.59;;;;
2022/01/14 02:34:25;;;;;;;52.7;22.35;;;;;;;-4.01;78.1123;96980.59;;;;
2022/01/14 02:35:26;;;;;;;52.7;22.35;;;;;;;-4.01;78.1123;96980.59;;;;
2022/01/14 02:36:28;;;;;;;52.7;22.35;;;;;;;-4.01;78.1123;96980.59;;;;
2022/01/14 02:37:31;;;;;;;52.7;22.35;;;;;;;-4.01;78.1123;96980.59;;;;
2022/01/14 02:38:32;;;;;;;52.7;22.35;;;;;;;-4.01;78.1123;96980.59;;;;
2022/01/14 02:39:33;;;;;;;52.7;22.35;;;;;;;-4.01;78.1123;96980.59;;;;
2022/01/14 02:40:33;;;;;;;52.7;22.35;;;;;;;-4.01;78.1123;96980.59;;;;
2022/01/14 02:41:34;;;;;;;52.7;22.35;;;;;;;-4.01;78.1123;96980.59;;;;
2022/01/14 02:42:36;;;;;;;52.7;22.35;;;;;;;-4.01;78.1123;96980.59;;;;
2022/01/14 02:43:36;;;;;;;50.80001;20.15;;;;;;;-4.01;78.07227;96965.2;;;;
2022/01/14 02:44:37;;;;;;;50.80001;20.15;;;;;;;-4.01;78.07227;96965.2;;;;
2022/01/14 02:45:37;;;;;;;50.80001;20.15;;;;;;;-4.01;78.07227;96965.2;;;;
2022/01/14 02:46:42;;;;;;;50.80001;20.15;;;;;;;-4.01;78.07227;96965.2;;;;
2022/01/14 02:47:43;;;;;;;50.80001;20.15;;;;;;;-4.01;78.07227;96965.2;;;;
2022/01/14 02:48:44;;;;;;;50.80001;20.15;;;;;;;-4.01;78.07227;96965.2;;;;
2022/01/14 02:49:45;;;;;;;50.80001;20.15;;;;;;;-4.01;78.07227;96965.2;;;;
2022/01/14 02:50:55;;;;;;;50.80001;20.15;;;;;;;-4.01;78.07227;96965.2;;;;
2022/01/14 02:51:57;;;;;;;50.80001;20.15;;;;;;;-4.01;78.07227;96965.2;;;;
2022/01/14 02:53:01;;;;;;;50.80001;20.15;;;;;;;-4.01;78.07227;96965.2;;;;
2022/01/14 02:54:12;;;;;;;39.15;17.8;;;;;;;-4;78.04297;96947.52;;;;
2022/01/14 02:55:15;;;;;;;39.15;17.8;;;;;;;-4;78.04297;96947.52;;;;
2022/01/14 02:56:16;;;;;;;39.15;17.8;;;;;;;-4;78.04297;96947.52;;;;
2022/01/14 02:57:20;;;;;;;39.15;17.8;;;;;;;-4;78.04297;96947.52;;;;
2022/01/14 02:58:21;;;;;;;39.15;17.8;;;;;;;-4;78.04297;96947.52;;;;
2022/01/14 02:59:23;;;;;;;39.15;17.8;;;;;;;-4;78.04297;96947.52;;;;
2022/01/14 03:00:25;;;;;;;39.15;17.8;;;;;;;-4;78.04297;96947.52;;;;
2022/01/14 03:01:29;;;;;;;39.15;17.8;;;;;;;-4;78.04297;96947.52;;;;
2022/01/14 03:02:30;;;;;;;39.15;17.8;;;;;;;-4;78.04297;96947.52;;;;
2022/01/14 03:03:31;;;;;;;39.15;17.8;;;;;;;-4;78.04297;96947.52;;;;
2022/01/14 03:04:36;;;;;;;45.05001;19.5;;;;;;;-4;78.03125;96942.7;;;;
2022/01/14 03:05:41;;;;;;;45.05001;19.5;;;;;;;-4;78.03125;96942.7;;;;
2022/01/14 03:06:42;;;;;;;45.05001;19.5;;;;;;;-4;78.03125;96942.7;;;;
2022/01/14 03:07:43;;;;;;;45.05001;19.5;;;;;;;-4;78.03125;96942.7;;;;
2022/01/14 03:08:43;;;;;;;45.05001;19.5;;;;;;;-4;78.03125;96942.7;;;;
2022/01/14 03:09:45;;;;;;;45.05001;19.5;;;;;;;-4;78.03125;96942.7;;;;
2022/01/14 03:10:46;;;;;;;45.05001;19.5;;;;;;;-4;78.03125;96942.7;;;;
2022/01/14 03:11:53;;;;;;;45.05001;19.5;;;;;;;-4;78.03125;96942.7;;;;
2022/01/14 03:12:57;;;;;;;45.05001;19.5;;;;;;;-4;78.03125;96942.7;;;;
2022/01/14 03:13:58;;;;;;;45.05001;19.5;;;;;;;-4;78.03125;96942.7;;;;
2022/01/14 03:14:59;;;;;;;42.4;18.8;;;;;;;-4.04;77.98438;96935.91;;;;
2022/01/14 03:16:00;;;;;;;42.4;18.8;;;;;;;-4.04;77.98438;96935.91;;;;
2022/01/14 03:17:02;;;;;;;42.4;18.8;;;;;;;-4.04;77.98438;96935.91;;;;
2022/01/14 03:18:03;;;;;;;42.4;18.8;;;;;;;-4.04;77.98438;96935.91;;;;
2022/01/14 03:19:07;;;;;;;42.4;18.8;;;;;;;-4.04;77.98438;96935.91;;;;
2022/01/14 03:20:11;;;;;;;42.4;18.8;;;;;;;-4.04;77.98438;96935.91;;;;
2022/01/14 03:21:13;;;;;;;42.4;18.8;;;;;;;-4.04;77.98438;96935.91;;;;
2022/01/14 03:22:23;;;;;;;42.4;18.8;;;;;;;-4.04;77.98438;96935.91;;;;
2022/01/14 03:23:25;;;;;;;42.4;18.8;;;;;;;-4.04;77.98438;96935.91;;;;
2022/01/14 03:25:37;;;;;;;42.4;18.8;;;;;;;-4.04;77.98438;96935.91;;;;
2022/01/14 03:26:38;;;;;;;44.44999;21.15;;;;;;;-4.14;78.18262;96912.04;;;;
2022/01/14 03:27:38;;;;;;;44.44999;21.15;;;;;;;-4.14;78.18262;96912.04;;;;
2022/01/14 03:28:38;;;;;;;44.44999;21.15;;;;;;;-4.14;78.18262;96912.04;;;;
2022/01/14 03:29:39;;;;;;;44.44999;21.15;;;;;;;-4.14;78.18262;96912.04;;;;
2022/01/14 03:30:40;;;;;;;44.44999;21.15;;;;;;;-4.14;78.18262;96912.04;;;;
2022/01/14 03:31:41;;;;;;;44.44999;21.15;;;;;;;-4.14;78.18262;96912.04;;;;
2022/01/14 03:32:42;;;;;;;44.44999;21.15;;;;;;;-4.14;78.18262;96912.04;;;;
2022/01/14 03:33:43;;;;;;;44.44999;21.15;;;;;;;-4.14;78.18262;96912.04;;;;
2022/01/14 03:34:43;;;;;;;44.44999;21.15;;;;;;;-4.14;78.18262;96912.04;;;;
2022/01/14 03:35:44;;;;;;;44.44999;21.15;;;;;;;-4.14;78.18262;96912.04;;;;
2022/01/14 03:36:45;;;;;;;35.55;16.1;;;;;;;-4.11;78.44629;96906.11;;;;
2022/01/14 03:37:45;;;;;;;35.55;16.1;;;;;;;-4.11;78.44629;96906.11;;;;
2022/01/14 03:38:46;;;;;;;35.55;16.1;;;;;;;-4.11;78.44629;96906.11;;;;
2022/01/14 03:39:46;;;;;;;35.55;16.1;;;;;;;-4.11;78.44629;96906.11;;;;
2022/01/14 03:40:47;;;;;;;35.55;16.1;;;;;;;-4.11;78.44629;96906.11;;;;
2022/01/14 03:41:47;;;;;;;35.55;16.1;;;;;;;-4.11;78.44629;96906.11;;;;
2022/01/14 03:42:48;;;;;;;35.55;16.1;;;;;;;-4.11;78.44629;96906.11;;;;
2022/01/14 03:43:49;;;;;;;35.55;16.1;;;;;;;-4.11;78.44629;96906.11;;;;
2022/01/14 03:44:49;;;;;;;35.55;16.1;;;;;;;-4.11;78.44629;96906.11;;;;
2022/01/14 03:45:50;;;;;;;35.55;16.1;;;;;;;-4.11;78.44629;96906.11;;;;
2022/01/14 03:46:51;;;;;;;38.5;16;;;;;;;-4.13;78.2959;96898.36;;;;
2022/01/14 03:47:51;;;;;;;38.5;16;;;;;;;-4.13;78.2959;96898.36;;;;
2022/01/14 03:48:52;;;;;;;38.5;16;;;;;;;-4.13;78.2959;96898.36;;;;
2022/01/14 03:49:53;;;;;;;38.5;16;;;;;;;-4.13;78.2959;96898.36;;;;
2022/01/14 03:50:53;;;;;;;38.5;16;;;;;;;-4.13;78.2959;96898.36;;;;
2022/01/14 03:51:54;;;;;;;38.5;16;;;;;;;-4.13;78.2959;96898.36;;;;
2022/01/14 03:52:54;;;;;;;38.5;16;;;;;;;-4.13;78.2959;96898.36;;;;
2022/01/14 03:53:55;;;;;;;38.5;16;;;;;;;-4.13;78.2959;96898.36;;;;
2022/01/14 03:54:56;;;;;;;38.5;16;;;;;;;-4.13;78.2959;96898.36;;;;
2022/01/14 03:55:56;;;;;;;38.5;16;;;;;;;-4.13;78.2959;96898.36;;;;
2022/01/14 03:56:57;;;;;;;38.5;16;;;;;;;-4.13;78.2959;96898.36;;;;
2022/01/14 03:57:57;;;;;;;37.85;16.4;;;;;;;-4.17;78.27051;96893.77;;;;
2022/01/14 03:58:58;;;;;;;37.85;16.4;;;;;;;-4.17;78.27051;96893.77;;;;
2022/01/14 03:59:59;;;;;;;37.85;16.4;;;;;;;-4.17;78.27051;96893.77;;;;
2022/01/14 04:01:00;;;;;;;37.85;16.4;;;;;;;-4.17;78.27051;96893.77;;;;
2022/01/14 04:02:00;;;;;;;37.85;16.4;;;;;;;-4.17;78.27051;96893.77;;;;
2022/01/14 04:03:01;;;;;;;37.85;16.4;;;;;;;-4.17;78.27051;96893.77;;;;
2022/01/14 04:04:02;;;;;;;37.85;16.4;;;;;;;-4.17;78.27051;96893.77;;;;
2022/01/14 04:05:03;;;;;;;37.85;16.4;;;;;;;-4.17;78.27051;96893.77;;;;
2022/01/14 04:06:04;;;;;;;37.85;16.4;;;;;;;-4.17;78.27051;96893.77;;;;
2022/01/14 04:07:05;;;;;;;37.85;16.4;;;;;;;-4.17;78.27051;96893.77;;;;
2022/01/14 04:08:05;;;;;;;35.65;16.5;;;;;;;-4.21;78.33398;96894.11;;;;
2022/01/14 04:09:06;;;;;;;35.65;16.5;;;;;;;-4.21;78.33398;96894.11;;;;
2022/01/14 04:10:10;;;;;;;35.65;16.5;;;;;;;-4.21;78.33398;96894.11;;;;
2022/01/14 04:11:11;;;;;;;35.65;16.5;;;;;;;-4.21;78.33398;96894.11;;;;
2022/01/14 04:12:18;;;;;;;35.65;16.5;;;;;;;-4.21;78.33398;96894.11;;;;
2022/01/14 04:13:19;;;;;;;35.65;16.5;;;;;;;-4.21;78.33398;96894.11;;;;
2022/01/14 04:15:36;;;;;;;35.65;16.5;;;;;;;-4.21;78.33398;96894.11;;;;
2022/01/14 04:16:37;;;;;;;35.65;16.5;;;;;;;-4.21;78.33398;96894.11;;;;
2022/01/14 04:17:37;;;;;;;35.65;16.5;;;;;;;-4.21;78.33398;96894.11;;;;
2022/01/14 04:18:38;;;;;;;35.65;16.5;;;;;;;-4.21;78.33398;96894.11;;;;
2022/01/14 04:19:39;;;;;;;33.15;16.05;;;;;;;-4.25;78.38867;96875.03;;;;
2022/01/14 04:20:39;;;;;;;33.15;16.05;;;;;;;-4.25;78.38867;96875.03;;;;
2022/01/14 04:21:42;;;;;;;33.15;16.05;;;;;;;-4.25;78.38867;96875.03;;;;
2022/01/14 04:22:42;;;;;;;33.15;16.05;;;;;;;-4.25;78.38867;96875.03;;;;
2022/01/14 04:23:42;;;;;;;33.15;16.05;;;;;;;-4.25;78.38867;96875.03;;;;
2022/01/14 04:24:43;;;;;;;33.15;16.05;;;;;;;-4.25;78.38867;96875.03;;;;
2022/01/14 04:25:44;;;;;;;33.15;16.05;;;;;;;-4.25;78.38867;96875.03;;;;
2022/01/14 04:26:45;;;;;;;33.15;16.05;;;;;;;-4.25;78.38867;96875.03;;;;
2022/01/14 04:27:45;;;;;;;33.15;16.05;;;;;;;-4.25;78.38867;96875.03;;;;
2022/01/14 04:28:46;;;;;;;33.15;16.05;;;;;;;-4.25;78.38867;96875.03;;;;
2022/01/14 04:29:46;;;;;;;31.25;14.95;;;;;;;-4.27;78.40527;96875.61;;;;
2022/01/14 04:30:47;;;;;;;31.25;14.95;;;;;;;-4.27;78.40527;96875.61;;;;
2022/01/14 04:31:48;;;;;;;31.25;14.95;;;;;;;-4.27;78.40527;96875.61;;;;
2022/01/14 04:32:48;;;;;;;31.25;14.95;;;;;;;-4.27;78.40527;96875.61;;;;
2022/01/14 04:33:49;;;;;;;31.25;14.95;;;;;;;-4.27;78.40527;96875.61;;;;
2022/01/14 04:34:49;;;;;;;31.25;14.95;;;;;;;-4.27;78.40527;96875.61;;;;
2022/01/14 04:35:50;;;;;;;31.25;14.95;;;;;;;-4.27;78.40527;96875.61;;;;
2022/01/14 04:36:51;;;;;;;31.25;14.95;;;;;;;-4.27;78.40527;96875.61;;;;
2022/01/14 04:37:52;;;;;;;31.25;14.95;;;;;;;-4.27;78.40527;96875.61;;;;
2022/01/14 04:38:52;;;;;;;31.25;14.95;;;;;;;-4.27;78.40527;96875.61;;;;
2022/01/14 04:39:53;;;;;;;31.25;14.95;;;;;;;-4.27;78.40527;96875.61;;;;
2022/01/14 04:40:53;;;;;;;33.15;15.1;;;;;;;-4.29;78.49512;96870.01;;;;
2022/01/14 04:41:54;;;;;;;33.15;15.1;;;;;;;-4.29;78.49512;96870.01;;;;
2022/01/14 04:42:55;;;;;;;33.15;15.1;;;;;;;-4.29;78.49512;96870.01;;;;
2022/01/14 04:43:56;;;;;;;33.15;15.1;;;;;;;-4.29;78.49512;96870.01;;;;
2022/01/14 04:44:57;;;;;;;33.15;15.1;;;;;;;-4.29;78.49512;96870.01;;;;
2022/01/14 04:46:23;;;;;;;33.15;15.1;;;;;;;-4.29;78.49512;96870.01;;;;
2022/01/14 04:47:34;;;;;;;33.15;15.1;;;;;;;-4.29;78.49512;96870.01;;;;
2022/01/14 04:48:35;;;;;;;33.15;15.1;;;;;;;-4.29;78.49512;96870.01;;;;
2022/01/14 04:49:37;;;;;;;33.15;15.1;;;;;;;-4.29;78.49512;96870.01;;;;
2022/01/14 04:50:38;;;;;;;33.15;15.1;;;;;;;-4.29;78.49512;96870.01;;;;
2022/01/14 04:51:39;;;;;;;30.7;14.3;;;;;;;-4.3;78.49121;96865.28;;;;
2022/01/14 04:52:40;;;;;;;30.7;14.3;;;;;;;-4.3;78.49121;96865.28;;;;
2022/01/14 04:53:41;;;;;;;30.7;14.3;;;;;;;-4.3;78.49121;96865.28;;;;
2022/01/14 04:54:43;;;;;;;30.7;14.3;;;;;;;-4.3;78.49121;96865.28;;;;
2022/01/14 04:55:44;;;;;;;30.7;14.3;;;;;;;-4.3;78.49121;96865.28;;;;
2022/01/14 04:56:44;;;;;;;30.7;14.3;;;;;;;-4.3;78.49121;96865.28;;;;
2022/01/14 04:57:45;;;;;;;30.7;14.3;;;;;;;-4.3;78.49121;96865.28;;;;
2022/01/14 04:58:45;;;;;;;30.7;14.3;;;;;;;-4.3;78.49121;96865.28;;;;
2022/01/14 04:59:46;;;;;;;30.7;14.3;;;;;;;-4.3;78.49121;96865.28;;;;
2022/01/14 05:00:47;;;;;;;30.7;14.3;;;;;;;-4.3;78.49121;96865.28;;;;
2022/01/14 05:01:48;;;;;;;28.3;13.8;;;;;;;-4.32;78.57227;96860.1;;;;
2022/01/14 05:02:48;;;;;;;28.3;13.8;;;;;;;-4.32;78.57227;96860.1;;;;
2022/01/14 05:03:49;;;;;;;28.3;13.8;;;;;;;-4.32;78.57227;96860.1;;;;
2022/01/14 05:04:50;;;;;;;28.3;13.8;;;;;;;-4.32;78.57227;96860.1;;;;
2022/01/14 05:05:55;;;;;;;28.3;13.8;;;;;;;-4.32;78.57227;96860.1;;;;
2022/01/14 05:07:01;;;;;;;28.3;13.8;;;;;;;-4.32;78.57227;96860.1;;;;
2022/01/14 05:08:01;;;;;;;28.3;13.8;;;;;;;-4.32;78.57227;96860.1;;;;
2022/01/14 05:09:15;;;;;;;28.3;13.8;;;;;;;-4.32;78.57227;96860.1;;;;
2022/01/14 05:10:22;;;;;;;28.3;13.8;;;;;;;-4.32;78.57227;96860.1;;;;
2022/01/14 05:11:35;;;;;;;28.3;13.8;;;;;;;-4.32;78.57227;96860.1;;;;
2022/01/14 05:12:35;;;;;;;26.75;13.25;;;;;;;-4.34;78.52734;96864.23;;;;
2022/01/14 05:13:37;;;;;;;26.75;13.25;;;;;;;-4.34;78.52734;96864.23;;;;
2022/01/14 05:14:38;;;;;;;26.75;13.25;;;;;;;-4.34;78.52734;96864.23;;;;
2022/01/14 05:15:38;;;;;;;26.75;13.25;;;;;;;-4.34;78.52734;96864.23;;;;
2022/01/14 05:16:39;;;;;;;26.75;13.25;;;;;;;-4.34;78.52734;96864.23;;;;
2022/01/14 05:17:39;;;;;;;26.75;13.25;;;;;;;-4.34;78.52734;96864.23;;;;
2022/01/14 05:18:40;;;;;;;26.75;13.25;;;;;;;-4.34;78.52734;96864.23;;;;
2022/01/14 05:19:41;;;;;;;26.75;13.25;;;;;;;-4.34;78.52734;96864.23;;;;
2022/01/14 05:20:41;;;;;;;26.75;13.25;;;;;;;-4.34;78.52734;96864.23;;;;
2022/01/14 05:21:42;;;;;;;26.75;13.25;;;;;;;-4.34;78.52734;96864.23;;;;
2022/01/14 05:22:43;;;;;;;26.75;13.25;;;;;;;-4.34;78.52734;96864.23;;;;
2022/01/14 05:23:44;;;;;;;27;13.5;;;;;;;-4.37;78.60352;96866.24;;;;
2022/01/14 05:24:44;;;;;;;27;13.5;;;;;;;-4.37;78.60352;96866.24;;;;
2022/01/14 05:25:45;;;;;;;27;13.5;;;;;;;-4.37;78.60352;96866.24;;;;
2022/01/14 05:26:45;;;;;;;27;13.5;;;;;;;-4.37;78.60352;96866.24;;;;
2022/01/14 05:27:46;;;;;;;27;13.5;;;;;;;-4.37;78.60352;96866.24;;;;
2022/01/14 05:28:46;;;;;;;27;13.5;;;;;;;-4.37;78.60352;96866.24;;;;
2022/01/14 05:29:47;;;;;;;27;13.5;;;;;;;-4.37;78.60352;96866.24;;;;
2022/01/14 05:30:48;;;;;;;27;13.5;;;;;;;-4.37;78.60352;96866.24;;;;
2022/01/14 05:31:49;;;;;;;27;13.5;;;;;;;-4.37;78.60352;96866.24;;;;
2022/01/14 05:32:52;;;;;;;27;13.5;;;;;;;-4.37;78.60352;96866.24;;;;
2022/01/14 05:33:53;;;;;;;27;13.5;;;;;;;-4.37;78.60352;96866.24;;;;
2022/01/14 05:34:54;;;;;;;27;13.5;;;;;;;-4.37;78.60352;96866.24;;;;
2022/01/14 05:35:54;;;;;;;27;13.5;;;;;;;-4.37;78.60352;96866.24;;;;
2022/01/14 05:36:55;;;;;;;27;13.5;;;;;;;-4.37;78.60352;96866.24;;;;
2022/01/14 05:37:55;;;;;;;27;13.5;;;;;;;-4.37;78.60352;96866.24;;;;
2022/01/14 05:38:56;;;;;;;27;13.5;;;;;;;-4.37;78.60352;96866.24;;;;
2022/01/14 05:39:57;;;;;;;27;13.5;;;;;;;-4.37;78.60352;96866.24;;;;
2022/01/14 05:40:58;;;;;;;27;13.5;;;;;;;-4.37;78.60352;96866.24;;;;
2022/01/14 05:41:59;;;;;;;27;13.5;;;;;;;-4.37;78.60352;96866.24;;;;
2022/01/14 05:43:01;;;;;;;27;13.5;;;;;;;-4.37;78.60352;96866.24;;;;
2022/01/14 05:44:02;;;;;;;27;13.5;;;;;;;-4.37;78.60352;96866.24;;;;
2022/01/14 05:45:04;;;;;;;26.05;13.1;;;;;;;-4.42;78.70801;96855.11;;;;
2022/01/14 05:46:06;;;;;;;26.05;13.1;;;;;;;-4.42;78.70801;96855.11;;;;
2022/01/14 05:47:07;;;;;;;26.05;13.1;;;;;;;-4.42;78.70801;96855.11;;;;
2022/01/14 05:48:08;;;;;;;26.05;13.1;;;;;;;-4.42;78.70801;96855.11;;;;
2022/01/14 05:49:08;;;;;;;26.05;13.1;;;;;;;-4.42;78.70801;96855.11;;;;
2022/01/14 05:50:09;;;;;;;26.05;13.1;;;;;;;-4.42;78.70801;96855.11;;;;
2022/01/14 05:51:12;;;;;;;26.05;13.1;;;;;;;-4.42;78.70801;96855.11;;;;
2022/01/14 05:52:12;;;;;;;26.05;13.1;;;;;;;-4.42;78.70801;96855.11;;;;
2022/01/14 05:53:13;;;;;;;26.05;13.1;;;;;;;-4.42;78.70801;96855.11;;;;
2022/01/14 05:54:13;;;;;;;26.05;13.1;;;;;;;-4.42;78.70801;96855.11;;;;
2022/01/14 05:55:15;;;;;;;26.05;13.1;;;;;;;-4.42;78.70801;96855.11;;;;
2022/01/14 05:56:17;;;;;;;26.05;13.1;;;;;;;-4.42;78.70801;96855.11;;;;
2022/01/14 05:57:17;;;;;;;26.05;13.1;;;;;;;-4.42;78.70801;96855.11;;;;
2022/01/14 05:58:18;;;;;;;26.05;13.1;;;;;;;-4.42;78.70801;96855.11;;;;
2022/01/14 05:59:18;;;;;;;26.05;13.1;;;;;;;-4.42;78.70801;96855.11;;;;